Time;durP1;ratioP1;P1;durP2;ratioP2;P2;SDS_P1;SDS_P2;PMS_P1;PMS_P2;Temp;Humidity;BMP_temperature;BMP_pressure;BME280_temperature;BME280_humidity;BME280_pressure;Samples;Min_cycle;Max_cycle;Signal;HPM_P1;HPM_P2
2021/12/19 00:00:58;;;;;;;53.17;26.60;;;7.40;99.90;;;;;;5027442;28;20287;-87
2021/12/19 00:08:50;;;;;;;51.90;27.27;;;7.70;99.90;;;;;;5020897;28;20227;-88
2021/12/19 00:11:18;;;;;;;49.03;27.30;;;7.50;99.90;;;;;;5028801;28;20223;-88
2021/12/19 00:13:44;;;;;;;54.42;28.27;;;;;;;;;;5028937;28;20218;-88
2021/12/19 00:16:11;;;;;;;50.13;27.70;;;7.60;99.90;;;;;;5028273;28;20184;-88
2021/12/19 00:18:37;;;;;;;50.75;26.65;;;11.40;99.90;;;;;;5015531;28;20184;-89
2021/12/19 00:21:04;;;;;;;50.90;26.40;;;;;;;;;;5031739;28;20230;-89
2021/12/19 00:23:30;;;;;;;47.65;25.48;;;;;;;;;;5029473;28;20179;-89
2021/12/19 00:25:57;;;;;;;51.88;25.83;;;7.70;99.90;;;;;;5032510;28;20290;-89
2021/12/19 00:28:22;;;;;;;45.63;26.83;;;11.50;99.90;;;;;;5022656;28;20240;-89
2021/12/19 00:30:48;;;;;;;48.60;24.63;;;8.20;99.90;;;;;;5029909;28;20210;-89
2021/12/19 00:33:13;;;;;;;60.50;27.50;;;9.20;99.90;;;;;;5070067;28;20214;-90
2021/12/19 00:35:39;;;;;;;52.83;26.90;;;7.70;99.90;;;;;;5068356;28;20194;-89
2021/12/19 00:38:05;;;;;;;47.60;24.03;;;6.90;99.90;;;;;;5051485;28;20189;-89
2021/12/19 00:40:32;;;;;;;55.27;28.50;;;7.70;99.90;;;;;;5067966;28;20273;-90
2021/12/19 00:43:06;;;;;;;62.60;28.75;;;7.60;99.90;;;;;;5043077;28;20293;-89
2021/12/19 00:45:35;;;;;;;57.53;29.02;;;7.60;99.90;;;;;;5050027;28;20529;-89
2021/12/19 00:48:05;;;;;;;52.22;26.13;;;8.50;99.90;;;;;;5069756;28;20179;-89
2021/12/19 00:50:31;;;;;;;53.53;29.95;;;7.70;99.90;;;;;;5055336;28;20190;-89
2021/12/19 00:52:58;;;;;;;46.97;27.20;;;7.60;99.90;;;;;;5051931;28;20217;-89
2021/12/19 00:55:27;;;;;;;54.38;25.10;;;9.40;99.90;;;;;;5042492;28;20274;-89
2021/12/19 00:57:54;;;;;;;50.70;26.55;;;7.70;99.90;;;;;;5052959;28;20195;-89
2021/12/19 01:00:22;;;;;;;53.28;26.77;;;7.50;99.90;;;;;;5030494;22;20223;-76
2021/12/19 01:02:51;;;;;;;52.22;28.90;;;7.70;99.90;;;;;;4945506;29;20736;-77
2021/12/19 01:05:18;;;;;;;57.67;27.70;;;7.60;99.90;;;;;;4947230;28;20248;-76
2021/12/19 01:07:44;;;;;;;52.05;27.20;;;7.60;99.90;;;;;;4945488;28;20214;-76
2021/12/19 01:10:09;;;;;;;52.07;28.67;;;8.20;99.90;;;;;;4941687;28;20230;-76
2021/12/19 01:12:38;;;;;;;56.57;27.13;;;7.50;99.90;;;;;;4937387;28;20480;-76
2021/12/19 01:15:06;;;;;;;54.88;27.63;;;7.60;99.90;;;;;;4942817;28;20435;-77
2021/12/19 01:17:31;;;;;;;55.63;29.98;;;7.60;99.90;;;;;;4941902;28;20199;-77
2021/12/19 01:19:58;;;;;;;52.17;28.30;;;7.50;99.90;;;;;;4943806;29;20194;-77
2021/12/19 01:22:23;;;;;;;47.33;27.85;;;7.50;99.90;;;;;;4953354;28;20187;-76
2021/12/19 01:24:49;;;;;;;47.50;27.07;;;7.50;99.90;;;;;;4945241;28;20194;-76
2021/12/19 01:27:14;;;;;;;45.93;27.40;;;6.90;99.90;;;;;;4941943;29;20188;-77
2021/12/19 01:29:41;;;;;;;52.77;26.47;;;;;;;;;;5007552;22;20222;-90
2021/12/19 01:32:06;;;;;;;44.38;24.63;;;7.50;99.90;;;;;;5036010;28;20210;-89
2021/12/19 01:34:32;;;;;;;56.33;25.47;;;10.20;99.90;;;;;;5055401;28;20470;-90
2021/12/19 01:36:58;;;;;;;45.07;25.63;;;7.20;99.90;;;;;;5038550;28;20452;-90
2021/12/19 01:39:23;;;;;;;40.60;22.30;;;7.40;99.90;;;;;;5055212;28;20176;-90
2021/12/19 01:41:52;;;;;;;46.27;25.20;;;7.40;99.90;;;;;;5048477;28;20187;-88
2021/12/19 01:44:21;;;;;;;39.30;22.35;;;7.30;99.90;;;;;;5028703;28;20180;-89
2021/12/19 01:46:47;;;;;;;40.60;23.60;;;7.00;99.90;;;;;;5062080;28;20195;-89
2021/12/19 01:49:14;;;;;;;40.83;24.43;;;8.80;99.90;;;;;;5030944;28;20197;-89
2021/12/19 01:51:40;;;;;;;40.00;22.48;;;8.10;99.90;;;;;;5039010;28;20547;-89
2021/12/19 01:54:06;;;;;;;38.10;21.98;;;7.60;99.90;;;;;;5034206;28;20198;-89
2021/12/19 01:56:32;;;;;;;39.03;24.03;;;7.60;99.90;;;;;;5019779;28;20179;-89
2021/12/19 01:58:59;;;;;;;40.30;21.05;;;7.60;99.90;;;;;;5027137;28;20529;-89
2021/12/19 02:01:25;;;;;;;34.15;21.10;;;;;;;;;;5008849;28;20183;-89
2021/12/19 02:03:53;;;;;;;36.08;21.95;;;7.70;99.90;;;;;;5007109;28;20193;-89
2021/12/19 02:06:19;;;;;;;37.13;23.42;;;;;;;;;;5013526;28;20675;-89
2021/12/19 02:08:48;;;;;;;38.17;20.77;;;7.70;99.90;;;;;;5007537;28;20598;-88
2021/12/19 02:11:15;;;;;;;36.58;22.00;;;;;;;;;;5031181;28;20320;-88
2021/12/19 02:13:41;;;;;;;39.40;22.95;;;;;;;;;;5019902;28;20188;-89
2021/12/19 02:16:06;;;;;;;42.97;25.33;;;7.60;99.90;;;;;;5013895;28;20188;-89
2021/12/19 02:18:32;;;;;;;44.90;25.67;;;;;;;;;;5017328;28;20187;-89
2021/12/19 02:20:58;;;;;;;41.80;26.57;;;7.30;99.90;;;;;;5004527;28;20270;-89
2021/12/19 02:23:27;;;;;;;51.88;27.95;;;7.30;99.90;;;;;;5026407;28;20955;-88
2021/12/19 02:25:56;;;;;;;49.55;28.73;;;7.20;99.90;;;;;;5030977;28;20184;-88
2021/12/19 02:28:34;;;;;;;46.50;26.70;;;7.90;99.90;;;;;;5010579;28;20260;-89
2021/12/19 02:31:02;;;;;;;42.25;23.50;;;9.50;99.90;;;;;;5015181;28;20246;-89
2021/12/19 02:33:32;;;;;;;49.15;23.48;;;7.20;99.90;;;;;;5020677;28;20618;-89
2021/12/19 02:36:18;;;;;;;45.13;22.17;;;;;;;;;;4995964;28;20183;-89
2021/12/19 02:50:06;;;;;;;36.95;20.65;;;7.90;99.90;;;;;;5039537;28;20556;-89
2021/12/19 02:52:35;;;;;;;36.65;20.30;;;;;;;;;;5018813;28;20215;-89
2021/12/19 02:55:33;;;;;;;33.65;20.50;;;7.40;99.90;;;;;;4998193;28;20646;-88
2021/12/19 02:57:59;;;;;;;33.28;21.05;;;7.40;99.90;;;;;;4988538;28;20203;-89
2021/12/19 03:00:27;;;;;;;35.83;21.97;;;7.40;99.90;;;;;;5008001;28;20199;-88
2021/12/19 03:03:25;;;;;;;35.17;21.83;;;7.60;99.90;;;;;;5007383;28;20482;-89
2021/12/19 03:05:51;;;;;;;40.05;23.55;;;7.60;99.90;;;;;;5002244;28;20191;-89
2021/12/19 03:08:17;;;;;;;44.13;24.03;;;;;;;;;;5013773;28;20269;-89
2021/12/19 03:19:03;;;;;;;45.67;25.17;;;8.70;99.90;;;;;;5020014;28;20739;-89
2021/12/19 03:21:43;;;;;;;51.35;25.15;;;7.40;99.90;;;;;;5023968;28;20237;-89
2021/12/19 03:24:15;;;;;;;41.78;24.17;;;7.60;99.90;;;;;;5034375;28;20658;-89
2021/12/19 03:26:58;;;;;;;48.08;27.40;;;10.40;99.90;;;;;;5016041;28;20191;-89
2021/12/19 03:29:29;;;;;;;50.30;26.65;;;7.70;99.90;;;;;;5005116;28;20177;-90
2021/12/19 03:32:52;;;;;;;46.28;24.98;;;7.70;99.90;;;;;;4999222;28;20306;-89
2021/12/19 03:35:01;;;;;;;52.35;26.10;;;;;;;;;;5011545;28;20411;-89
2021/12/19 03:37:27;;;;;;;44.65;24.52;;;7.70;99.90;;;;;;5001290;28;20183;-89
2021/12/19 03:40:07;;;;;;;43.20;25.37;;;;;;;;;;5023190;28;20202;-88
2021/12/19 03:42:34;;;;;;;42.47;24.27;;;7.90;99.90;;;;;;5039453;28;20445;-89
2021/12/19 03:45:01;;;;;;;47.47;25.08;;;7.90;99.90;;;;;;5017208;28;20187;-89
2021/12/19 03:47:44;;;;;;;48.00;28.35;;;10.70;99.90;;;;;;4996322;28;20348;-88
2021/12/19 03:50:23;;;;;;;41.25;26.90;;;7.10;99.90;;;;;;5000977;28;20253;-89
2021/12/19 03:53:03;;;;;;;45.97;25.55;;;7.30;99.90;;;;;;5012899;28;20800;-89
2021/12/19 03:56:33;;;;;;;48.40;24.55;;;7.60;99.90;;;;;;5026407;28;20194;-89
2021/12/19 03:59:49;;;;;;;49.65;25.67;;;7.70;99.90;;;;;;5001779;28;20330;-89
2021/12/19 04:02:31;;;;;;;49.45;26.00;;;7.80;99.90;;;;;;4996510;28;20200;-89
2021/12/19 04:05:30;;;;;;;46.20;26.33;;;7.80;99.90;;;;;;5044343;28;20168;-89
2021/12/19 04:11:38;;;;;;;37.85;21.73;;;8.50;99.90;;;;;;5026269;28;20215;-88
2021/12/19 04:14:51;;;;;;;;;;;;;;;;;;;;;
2021/12/19 04:20:50;;;;;;;31.05;20.63;;;7.80;99.90;;;;;;5017960;28;20207;-89
2021/12/19 04:23:48;;;;;;;;;;;;;;;;;;;;;
2021/12/19 04:26:37;;;;;;;38.20;20.23;;;7.70;99.90;;;;;;5024078;28;20672;-89
2021/12/19 04:29:03;;;;;;;38.83;20.88;;;;;;;;;;5009662;28;20541;-89
2021/12/19 04:32:18;;;;;;;;;;;;;;;;;;;;;
2021/12/19 05:15:53;;;;;;;53.67;24.27;;;7.10;99.90;;;;;;4915877;28;20212;-89
2021/12/19 05:18:54;;;;;;;47.42;22.92;;;7.20;99.90;;;;;;4929549;29;20224;-89
2021/12/19 05:28:58;;;;;;;;;;;;;;;;;;;;;
2021/12/19 05:32:19;;;;;;;27.58;15.50;;;7.10;99.90;;;;;;4857033;29;20233;-89
2021/12/19 05:46:16;;;;;;;13.65;8.07;;;8.80;99.90;;;;;;4872968;29;20463;-91
2021/12/19 05:48:53;;;;;;;7.95;7.13;;;7.10;99.90;;;;;;4871670;29;20233;-92
2021/12/19 05:56:03;;;;;;;7.60;5.72;;;7.00;99.90;;;;;;4854363;29;20237;-92
2021/12/19 05:58:52;;;;;;;5.00;4.38;;;7.00;99.90;;;;;;4819453;29;20230;-92
2021/12/19 06:09:18;;;;;;;;;;;;;;;;;;;;;
2021/12/19 06:15:49;;;;;;;8.90;5.85;;;7.00;99.90;;;;;;4763602;30;20457;-91
2021/12/19 06:26:35;;;;;;;;;;;;;;;;;;;;;
2021/12/19 06:30:09;;;;;;;8.35;6.40;;;7.00;99.90;;;;;;4809655;29;20194;-92
2021/12/19 06:37:07;;;;;;;;;;;;;;;;;;;;;
2021/12/19 06:40:02;;;;;;;6.78;5.70;;;7.80;99.90;;;;;;4886657;29;20457;-92
2021/12/19 06:42:50;;;;;;;8.95;6.80;;;7.90;99.90;;;;;;4947110;28;20207;-91
2021/12/19 06:45:47;;;;;;;8.45;6.25;;;7.00;99.90;;;;;;5025660;28;20185;-92
2021/12/19 06:48:26;;;;;;;12.88;8.40;;;7.20;99.90;;;;;;4992762;28;20188;-92
2021/12/19 06:51:33;;;;;;;15.55;9.05;;;7.30;99.90;;;;;;5000170;28;20554;-92
2021/12/19 06:54:33;;;;;;;12.10;8.55;;;7.30;99.90;;;;;;4996383;28;20172;-92
2021/12/19 07:00:03;;;;;;;16.25;10.80;;;7.60;99.90;;;;;;5029762;28;20219;-92
2021/12/19 07:06:45;;;;;;;18.95;10.90;;;9.20;99.90;;;;;;4946775;28;20194;-92
2021/12/19 07:10:00;;;;;;;27.65;11.80;;;7.30;99.90;;;;;;4930095;29;20202;-91
2021/12/19 07:12:32;;;;;;;18.70;11.77;;;7.00;99.90;;;;;;5024964;28;20233;-92
2021/12/19 07:17:39;;;;;;;23.77;14.80;;;7.20;99.90;;;;;;5098545;22;20244;-83
2021/12/19 07:20:08;;;;;;;26.07;14.67;;;7.20;99.90;;;;;;5050563;28;20187;-80
2021/12/19 07:22:34;;;;;;;28.17;16.38;;;7.30;99.90;;;;;;5053266;28;20183;-80
2021/12/19 07:24:59;;;;;;;24.83;14.47;;;7.10;99.90;;;;;;5052236;28;20722;-81
2021/12/19 07:27:25;;;;;;;22.60;13.83;;;7.10;99.90;;;;;;5060039;28;20227;-82
2021/12/19 07:29:53;;;;;;;23.80;14.67;;;8.40;99.90;;;;;;5053947;28;20197;-82
2021/12/19 07:32:18;;;;;;;21.52;14.23;;;6.90;99.90;;;;;;5055476;28;20306;-81
2021/12/19 07:34:46;;;;;;;25.47;14.17;;;7.00;99.90;;;;;;5060508;28;20238;-81
2021/12/19 07:37:12;;;;;;;24.75;13.50;;;7.10;99.90;;;;;;5059667;28;20252;-81
2021/12/19 07:39:50;;;;;;;22.43;13.00;;;6.80;99.90;;;;;;5054370;28;20194;-82
2021/12/19 07:42:16;;;;;;;27.58;14.48;;;7.00;99.90;;;;;;5054748;28;20225;-82
2021/12/19 07:44:41;;;;;;;24.33;15.77;;;6.80;99.90;;;;;;5051071;28;20230;-81
2021/12/19 07:47:07;;;;;;;19.23;13.37;;;7.10;99.90;;;;;;5045701;28;20963;-81
2021/12/19 07:49:33;;;;;;;26.50;14.97;;;6.60;99.90;;;;;;5046815;28;20588;-82
2021/12/19 07:51:59;;;;;;;29.03;14.60;;;6.80;99.90;;;;;;5047965;28;20260;-82
2021/12/19 07:54:24;;;;;;;22.60;13.27;;;6.80;99.90;;;;;;5051043;28;20594;-82
2021/12/19 07:56:51;;;;;;;24.43;15.40;;;6.70;99.90;;;;;;5050025;28;20452;-82
2021/12/19 07:59:17;;;;;;;22.17;13.32;;;6.80;99.90;;;;;;5060858;28;20218;-81
2021/12/19 08:01:43;;;;;;;20.73;14.00;;;7.10;99.90;;;;;;5055906;28;20225;-82
2021/12/19 08:04:09;;;;;;;27.33;14.63;;;7.00;99.90;;;;;;5056691;28;20532;-82
2021/12/19 08:06:34;;;;;;;24.60;16.20;;;6.50;99.90;;;;;;5056446;28;20702;-82
2021/12/19 08:09:07;;;;;;;24.97;14.20;;;7.20;99.90;;;;;;5057150;28;20714;-83
2021/12/19 08:11:40;;;;;;;19.05;12.90;;;7.10;99.90;;;;;;5040006;28;20218;-83
2021/12/19 08:14:08;;;;;;;18.95;12.70;;;6.50;99.90;;;;;;5050102;28;20175;-82
2021/12/19 08:16:34;;;;;;;17.17;12.45;;;7.20;99.90;;;;;;5052400;28;20375;-80
2021/12/19 08:18:59;;;;;;;21.70;13.30;;;7.20;99.90;;;;;;5064350;28;20658;-81
2021/12/19 08:21:25;;;;;;;18.10;12.13;;;7.10;99.90;;;;;;5063917;28;20259;-81
2021/12/19 08:23:51;;;;;;;22.47;13.20;;;7.90;99.90;;;;;;5062578;28;20186;-81
2021/12/19 08:26:16;;;;;;;17.10;12.80;;;6.50;99.90;;;;;;5044925;28;20229;-81
2021/12/19 08:28:42;;;;;;;19.20;12.67;;;6.90;99.90;;;;;;5061811;28;20247;-82
2021/12/19 08:31:08;;;;;;;19.90;12.97;;;7.00;99.90;;;;;;5056572;28;20272;-81
2021/12/19 08:33:34;;;;;;;20.33;12.87;;;6.90;99.90;;;;;;5059881;28;20436;-82
2021/12/19 08:36:01;;;;;;;20.75;12.57;;;6.20;99.90;;;;;;5060994;28;20186;-81
2021/12/19 08:38:27;;;;;;;25.10;13.75;;;6.90;99.90;;;;;;5058329;28;20198;-82
2021/12/19 08:40:53;;;;;;;17.17;13.02;;;7.10;99.90;;;;;;5042014;28;20194;-82
2021/12/19 08:43:20;;;;;;;20.70;13.10;;;7.00;99.90;;;;;;5061619;28;20311;-81
2021/12/19 08:45:46;;;;;;;21.02;13.45;;;6.90;99.90;;;;;;5061488;28;20190;-81
2021/12/19 08:48:12;;;;;;;16.70;12.10;;;6.80;99.90;;;;;;5061085;28;20183;-81
2021/12/19 08:50:38;;;;;;;19.20;12.20;;;7.10;99.90;;;;;;5058830;28;20272;-86
2021/12/19 08:53:45;;;;;;;16.30;11.23;;;7.10;99.90;;;;;;5050906;28;20910;-87
2021/12/19 08:56:27;;;;;;;22.60;12.20;;;7.00;99.90;;;;;;5065990;28;20419;-86
2021/12/19 08:59:17;;;;;;;17.35;10.98;;;7.10;99.90;;;;;;5030044;28;20759;-85
2021/12/19 09:01:57;;;;;;;18.27;12.20;;;;;;;;;;5059496;28;20217;-84
2021/12/19 09:04:38;;;;;;;17.33;11.25;;;7.10;99.90;;;;;;5047375;28;20211;-84
2021/12/19 09:07:04;;;;;;;20.10;13.00;;;;;;;;;;5066059;28;20285;-86
2021/12/19 09:09:33;;;;;;;14.55;11.85;;;7.30;99.90;;;;;;5069764;28;20179;-84
2021/12/19 09:12:12;;;;;;;17.20;13.30;;;7.20;99.90;;;;;;5072851;28;20210;-85
2021/12/19 09:14:39;;;;;;;16.40;12.30;;;;;;;;;;5075826;28;20190;-85
2021/12/19 09:17:33;;;;;;;21.00;11.65;;;7.10;99.90;;;;;;5071299;28;20257;-85
2021/12/19 09:20:11;;;;;;;17.73;11.18;;;7.20;99.90;;;;;;5045572;28;20186;-85
2021/12/19 09:22:40;;;;;;;22.42;12.90;;;7.20;99.90;;;;;;5065753;28;20197;-84
2021/12/19 09:25:08;;;;;;;19.35;11.20;;;7.10;99.90;;;;;;5064145;28;20182;-84
2021/12/19 09:27:41;;;;;;;19.48;13.02;;;7.00;99.90;;;;;;5063133;28;20187;-85
2021/12/19 09:30:08;;;;;;;20.15;12.23;;;7.00;99.90;;;;;;5036288;28;20508;-85
2021/12/19 09:35:16;;;;;;;17.65;11.60;;;;;;;;;;4853511;26;21081;-84
2021/12/19 09:37:48;;;;;;;17.08;11.27;;;7.30;99.90;;;;;;4954692;28;20191;-84
2021/12/19 09:40:32;;;;;;;14.23;10.63;;;7.40;99.90;;;;;;4953934;28;20199;-84
2021/12/19 09:46:02;;;;;;;14.85;11.68;;;7.30;99.90;;;;;;4971070;28;20197;-84
2021/12/19 09:48:49;;;;;;;14.13;10.15;;;7.30;99.90;;;;;;4991899;28;20198;-84
2021/12/19 09:51:47;;;;;;;14.65;11.40;;;7.30;99.90;;;;;;4945844;28;20187;-86
2021/12/19 09:54:23;;;;;;;16.17;11.00;;;7.30;99.90;;;;;;4941109;29;20160;-85
2021/12/19 09:56:54;;;;;;;13.43;10.50;;;7.40;99.90;;;;;;5020403;28;20781;-85
2021/12/19 09:59:58;;;;;;;18.58;11.30;;;7.30;99.90;;;;;;4996896;28;20297;-85
2021/12/19 10:02:27;;;;;;;15.95;11.00;;;7.40;99.90;;;;;;4997575;28;20697;-82
2021/12/19 10:05:22;;;;;;;21.20;12.00;;;7.30;99.90;;;;;;4948737;28;20191;-84
2021/12/19 10:08:29;;;;;;;15.63;9.65;;;7.30;99.90;;;;;;5016765;28;20190;-84
2021/12/19 10:15:04;;;;;;;23.60;14.05;;;7.00;99.90;;;;;;4947513;28;20196;-84
2021/12/19 10:17:29;;;;;;;22.30;12.85;;;9.90;99.90;;;;;;5014665;28;20518;-83
2021/12/19 10:20:41;;;;;;;17.93;13.60;;;7.10;99.90;;;;;;4978638;28;20172;-84
2021/12/19 10:24:26;;;;;;;21.02;14.25;;;7.20;99.90;;;;;;4941153;29;20230;-86
2021/12/19 10:26:52;;;;;;;20.55;14.30;;;7.20;99.90;;;;;;4932536;28;20202;-84
2021/12/19 10:29:20;;;;;;;22.67;14.07;;;;;;;;;;4982340;28;20195;-84
2021/12/19 10:40:56;;;;;;;16.17;12.65;;;7.10;99.90;;;;;;4960651;29;20183;-94
2021/12/19 10:44:11;;;;;;;13.52;11.82;;;7.30;99.90;;;;;;4948607;28;20236;-93
2021/12/19 10:46:45;;;;;;;15.70;11.80;;;7.20;99.90;;;;;;4955236;29;20746;-94
2021/12/19 10:52:38;;;;;;;17.23;11.60;;;7.10;99.90;;;;;;4939048;29;20282;-91
2021/12/19 10:55:10;;;;;;;13.10;11.07;;;6.80;99.90;;;;;;4952405;29;20260;-91
2021/12/19 10:57:42;;;;;;;14.23;11.75;;;7.20;99.90;;;;;;4952825;29;20206;-92
2021/12/19 11:00:27;;;;;;;16.95;12.15;;;7.20;99.90;;;;;;4939424;28;20195;-91
2021/12/19 11:03:07;;;;;;;12.35;10.45;;;7.30;99.90;;;;;;4942403;28;20203;-93
2021/12/19 11:05:44;;;;;;;12.98;10.75;;;7.40;99.90;;;;;;4934686;29;20179;-92
2021/12/19 11:08:59;;;;;;;12.82;9.55;;;7.50;99.90;;;;;;4942871;29;20191;-94
2021/12/19 11:12:06;;;;;;;10.10;7.75;;;7.60;99.90;;;;;;4945848;28;20249;-92
2021/12/19 11:14:49;;;;;;;6.85;5.70;;;7.60;99.90;;;;;;4945479;28;20323;-94
2021/12/19 11:17:35;;;;;;;5.43;5.03;;;7.60;99.90;;;;;;4928074;29;20179;-92
2021/12/19 11:20:11;;;;;;;5.85;5.35;;;7.60;99.90;;;;;;4935423;28;20191;-94
2021/12/19 11:23:01;;;;;;;9.52;5.45;;;7.80;99.90;;;;;;5012675;23;20233;-85
2021/12/19 11:25:28;;;;;;;4.95;4.65;;;;;;;;;;4978906;28;20194;-85
2021/12/19 11:27:54;;;;;;;3.85;3.00;;;5.20;99.90;;;;;;5014374;28;20960;-85
2021/12/19 11:30:20;;;;;;;5.70;3.73;;;7.50;99.90;;;;;;4963045;28;20186;-86
2021/12/19 11:32:46;;;;;;;3.80;3.47;;;;;;;;;;4963316;28;20480;-85
2021/12/19 11:35:37;;;;;;;2.42;2.35;;;7.50;99.90;;;;;;5044179;28;20178;-86
2021/12/19 11:38:08;;;;;;;2.42;2.30;;;7.50;99.90;;;;;;4952104;29;20185;-80
2021/12/19 11:40:37;;;;;;;4.25;3.92;;;7.50;99.90;;;;;;4950545;28;20183;-85
2021/12/19 11:43:12;;;;;;;3.78;3.47;;;7.30;99.90;;;;;;4963324;28;20223;-87
2021/12/19 11:45:43;;;;;;;2.92;2.72;;;7.60;99.90;;;;;;4988981;28;20181;-83
2021/12/19 11:48:14;;;;;;;3.53;3.30;;;;;;;;;;4970225;28;20177;-85
2021/12/19 11:50:54;;;;;;;4.53;4.13;;;7.50;99.90;;;;;;4963110;28;20197;-85
2021/12/19 11:53:24;;;;;;;3.10;3.00;;;7.30;99.90;;;;;;4948077;28;20218;-84
2021/12/19 11:55:55;;;;;;;3.30;3.20;;;7.50;99.90;;;;;;4964640;28;20239;-85
2021/12/19 11:58:36;;;;;;;3.63;3.42;;;7.50;99.90;;;;;;4963867;28;20202;-84
2021/12/19 12:01:29;;;;;;;3.00;2.85;;;7.60;99.90;;;;;;4974701;28;20197;-85
2021/12/19 12:04:00;;;;;;;9.13;8.25;;;7.70;99.90;;;;;;4986504;28;20265;-83
2021/12/19 12:06:34;;;;;;;2.20;2.20;;;7.70;99.90;;;;;;4971849;28;20273;-86
2021/12/19 12:09:24;;;;;;;2.60;2.50;;;7.80;99.90;;;;;;4955780;28;20743;-87
2021/12/19 12:12:08;;;;;;;1.60;1.60;;;7.80;99.90;;;;;;4962849;28;20217;-85
2021/12/19 12:14:38;;;;;;;2.90;2.70;;;7.70;99.90;;;;;;4967022;28;20700;-89
2021/12/19 12:17:21;;;;;;;2.70;2.60;;;7.60;99.90;;;;;;4979342;28;20200;-87
2021/12/19 12:19:52;;;;;;;3.20;3.10;;;7.70;99.90;;;;;;4968990;28;20193;-85
2021/12/19 12:22:26;;;;;;;2.08;2.08;;;6.80;99.90;;;;;;4964007;28;20214;-89
2021/12/19 12:25:20;;;;;;;2.67;2.58;;;7.30;99.90;;;;;;4945895;28;20213;-85
2021/12/19 12:28:02;;;;;;;2.33;2.22;;;7.60;99.90;;;;;;4941599;28;20180;-86
2021/12/19 12:30:30;;;;;;;2.60;2.58;;;7.60;99.90;;;;;;4961359;28;20231;-85
2021/12/19 12:33:01;;;;;;;2.72;2.45;;;7.80;99.90;;;;;;4961276;28;20717;-84
2021/12/19 12:35:33;;;;;;;1.80;1.80;;;6.30;99.90;;;;;;4960665;28;20182;-84
2021/12/19 12:38:09;;;;;;;1.92;1.92;;;7.80;99.90;;;;;;4965196;28;20192;-88
2021/12/19 12:40:56;;;;;;;1.60;1.60;;;7.90;99.90;;;;;;4962663;28;20647;-86
2021/12/19 12:43:26;;;;;;;2.45;2.45;;;7.90;99.90;;;;;;4959995;28;20289;-83
2021/12/19 12:45:54;;;;;;;1.60;1.50;;;7.80;99.90;;;;;;4964624;28;20178;-85
2021/12/19 12:49:12;;;;;;;2.20;2.10;;;7.60;99.90;;;;;;4950140;28;20215;-84
2021/12/19 12:51:47;;;;;;;1.95;1.85;;;7.70;99.90;;;;;;4963728;28;20206;-81
2021/12/19 12:54:49;;;;;;;1.70;1.70;;;7.70;99.90;;;;;;4965514;28;20590;-85
2021/12/19 12:57:15;;;;;;;2.10;2.00;;;;;;;;;;4952363;28;20201;-85
2021/12/19 12:59:44;;;;;;;2.05;2.05;;;7.70;99.90;;;;;;4974403;28;20166;-85
2021/12/19 13:04:45;;;;;;;2.10;2.10;;;7.60;99.90;;;;;;4974533;28;20181;-87
2021/12/19 13:07:35;;;;;;;4.75;2.17;;;7.50;99.90;;;;;;4967942;28;20179;-85
2021/12/19 13:10:12;;;;;;;4.82;4.00;;;7.50;99.90;;;;;;4967560;28;20436;-86
2021/12/19 13:12:41;;;;;;;4.38;4.07;;;7.50;99.90;;;;;;4973889;28;20217;-82
2021/12/19 13:15:15;;;;;;;10.73;6.88;;;9.90;99.90;;;;;;4977547;28;20177;-86
2021/12/19 13:17:50;;;;;;;5.10;4.80;;;7.50;99.90;;;;;;4957881;28;20209;-86
2021/12/19 13:20:28;;;;;;;4.72;4.43;;;7.50;99.90;;;;;;4976580;28;20579;-85
2021/12/19 13:23:03;;;;;;;5.20;4.90;;;7.40;99.90;;;;;;4954600;28;20221;-86
2021/12/19 13:25:37;;;;;;;5.00;4.60;;;7.50;99.90;;;;;;4955401;28;20193;-82
2021/12/19 13:28:07;;;;;;;4.45;4.35;;;7.50;99.90;;;;;;4953039;28;20204;-86
2021/12/19 13:30:42;;;;;;;5.10;4.80;;;7.60;99.90;;;;;;4953498;28;20187;-83
2021/12/19 13:35:50;;;;;;;4.72;4.53;;;7.60;99.90;;;;;;5061271;28;20257;-89
2021/12/19 13:38:32;;;;;;;5.65;4.55;;;7.60;99.90;;;;;;5063204;28;20167;-85
2021/12/19 13:41:12;;;;;;;6.45;5.95;;;4.90;99.90;;;;;;5034111;28;20216;-86
2021/12/19 13:44:02;;;;;;;6.28;5.80;;;7.50;99.90;;;;;;5032678;28;20232;-87
2021/12/19 13:46:55;;;;;;;6.80;6.13;;;7.70;99.90;;;;;;5057147;28;20267;-83
2021/12/19 13:49:46;;;;;;;4.60;4.25;;;7.80;99.90;;;;;;5047737;28;20179;-86
2021/12/19 13:52:12;;;;;;;4.80;4.50;;;;;;;;;;5032770;28;20719;-88
2021/12/19 13:54:40;;;;;;;6.50;4.95;;;7.60;99.90;;;;;;5038451;28;20188;-85
2021/12/19 14:00:37;;;;;;;5.63;5.22;;;7.70;99.90;;;;;;5050093;28;20713;-84
2021/12/19 14:03:41;;;;;;;5.90;5.50;;;7.50;99.90;;;;;;5045477;28;20269;-87
2021/12/19 14:06:39;;;;;;;4.93;4.63;;;9.10;99.90;;;;;;5032640;28;20180;-87
2021/12/19 14:09:30;;;;;;;6.68;5.47;;;7.60;99.90;;;;;;5018943;28;20193;-86
2021/12/19 14:18:23;;;;;;;6.35;5.78;;;8.40;99.90;;;;;;4963980;28;20209;-86
2021/12/19 14:21:29;;;;;;;6.15;5.43;;;7.40;99.90;;;;;;4944858;28;20186;-85
2021/12/19 14:24:31;;;;;;;5.38;4.97;;;7.60;99.90;;;;;;4943292;28;20289;-85
2021/12/19 14:27:21;;;;;;;5.40;5.15;;;7.50;99.90;;;;;;4933780;28;20194;-82
2021/12/19 14:30:02;;;;;;;4.95;4.75;;;8.00;99.90;;;;;;4948305;28;20183;-87
2021/12/19 14:32:37;;;;;;;4.75;4.40;;;10.20;99.90;;;;;;4958644;28;20214;-83
2021/12/19 14:35:29;;;;;;;5.05;4.65;;;7.50;99.90;;;;;;4939212;28;20187;-86
2021/12/19 14:38:04;;;;;;;6.63;4.95;;;7.50;99.90;;;;;;4934504;28;20198;-85
2021/12/19 14:40:42;;;;;;;4.55;4.15;;;7.50;99.90;;;;;;4951149;28;20343;-85
2021/12/19 14:43:16;;;;;;;4.20;3.92;;;7.40;99.90;;;;;;4943469;28;20185;-86
2021/12/19 14:46:01;;;;;;;4.20;4.00;;;7.50;99.90;;;;;;4958286;28;20214;-78
2021/12/19 14:48:41;;;;;;;4.50;4.20;;;7.40;99.90;;;;;;4999756;28;20208;-85
2021/12/19 14:51:24;;;;;;;4.72;3.22;;;7.50;99.90;;;;;;4961327;28;20186;-84
2021/12/19 14:54:01;;;;;;;5.10;4.65;;;7.40;99.90;;;;;;4951438;28;20190;-86
2021/12/19 14:56:48;;;;;;;7.55;4.60;;;7.40;99.90;;;;;;4952001;28;20599;-83
2021/12/19 14:59:17;;;;;;;5.07;4.60;;;7.60;99.90;;;;;;4971137;28;20237;-85
2021/12/19 15:01:49;;;;;;;5.65;5.18;;;7.40;99.90;;;;;;4937626;28;20187;-87
2021/12/19 15:04:18;;;;;;;8.68;5.53;;;7.40;99.90;;;;;;4950897;28;20175;-86
2021/12/19 15:06:58;;;;;;;4.93;4.47;;;7.30;99.90;;;;;;4957822;28;20202;-85
2021/12/19 15:09:35;;;;;;;4.60;4.22;;;7.20;99.90;;;;;;4939243;28;20248;-86
2021/12/19 15:12:02;;;;;;;4.28;3.83;;;;;;;;;;4938545;28;20214;-86
2021/12/19 15:14:30;;;;;;;4.40;4.05;;;7.30;99.90;;;;;;4956780;28;20260;-85
2021/12/19 15:16:57;;;;;;;5.43;4.18;;;7.10;99.90;;;;;;4939309;28;20187;-86
2021/12/19 15:19:29;;;;;;;5.03;4.55;;;6.90;99.90;;;;;;4946534;28;20207;-86
2021/12/19 15:21:55;;;;;;;5.20;4.80;;;;;;;;;;4941212;28;20191;-85
2021/12/19 15:24:21;;;;;;;4.68;4.38;;;7.20;99.90;;;;;;4958890;28;20179;-85
2021/12/19 15:26:50;;;;;;;5.40;4.00;;;7.30;99.90;;;;;;4935904;28;20198;-84
2021/12/19 15:29:18;;;;;;;6.40;5.00;;;7.20;99.90;;;;;;4954212;28;20206;-84
2021/12/19 15:31:50;;;;;;;5.35;4.95;;;7.20;99.90;;;;;;4942820;28;20262;-86
2021/12/19 15:34:21;;;;;;;5.38;4.90;;;7.40;99.90;;;;;;4960696;28;20552;-85
2021/12/19 15:37:09;;;;;;;4.80;4.50;;;8.10;99.90;;;;;;4942537;28;20198;-85
2021/12/19 15:39:40;;;;;;;5.35;4.85;;;7.20;99.90;;;;;;4971477;28;20170;-83
2021/12/19 15:42:26;;;;;;;6.45;5.90;;;7.20;99.90;;;;;;4947881;28;20189;-86
2021/12/19 15:45:26;;;;;;;7.88;5.40;;;7.00;99.90;;;;;;4953981;28;20517;-87
2021/12/19 15:48:30;;;;;;;5.65;5.15;;;7.10;99.90;;;;;;4952251;28;20187;-87
2021/12/19 15:51:19;;;;;;;5.40;4.78;;;7.00;99.90;;;;;;4945623;28;20640;-88
2021/12/19 15:54:09;;;;;;;5.72;5.32;;;7.00;99.90;;;;;;4958112;28;20300;-88
2021/12/19 15:57:28;;;;;;;6.45;5.85;;;7.00;99.90;;;;;;4952905;28;20823;-88
2021/12/19 15:59:57;;;;;;;11.32;7.63;;;;;;;;;;4596562;28;10001193;-88
2021/12/19 16:02:28;;;;;;;8.93;7.50;;;7.10;99.90;;;;;;4945324;28;20227;-87
2021/12/19 16:04:55;;;;;;;11.18;8.27;;;7.20;99.90;;;;;;4940986;28;20195;-89
2021/12/19 16:07:26;;;;;;;12.50;8.48;;;7.10;99.90;;;;;;4940949;28;20795;-88
2021/12/19 16:09:52;;;;;;;11.85;8.35;;;;;;;;;;4940319;28;20200;-84
2021/12/19 16:12:22;;;;;;;16.55;9.23;;;7.10;99.90;;;;;;4934642;28;20218;-88
2021/12/19 16:15:02;;;;;;;12.60;8.23;;;7.10;99.90;;;;;;4932198;28;20226;-90
2021/12/19 16:17:28;;;;;;;17.60;9.05;;;;;;;;;;4935611;28;20190;-86
2021/12/19 16:19:54;;;;;;;17.00;9.90;;;7.10;99.90;;;;;;4922570;28;20198;-86
2021/12/19 16:22:21;;;;;;;18.70;12.55;;;7.10;99.90;;;;;;4927045;28;20530;-86
2021/12/19 16:24:48;;;;;;;16.35;11.70;;;6.90;99.90;;;;;;4942310;28;20218;-91
2021/12/19 16:27:13;;;;;;;22.17;13.32;;;7.10;99.90;;;;;;4930933;28;20186;-86
2021/12/19 16:29:39;;;;;;;19.23;12.13;;;;;;;;;;4951813;28;20198;-88
2021/12/19 16:32:11;;;;;;;22.38;12.95;;;7.10;99.90;;;;;;4979509;28;20611;-87
2021/12/19 16:34:39;;;;;;;21.98;13.45;;;;;;;;;;4957317;28;20213;-89